Time;durP1;ratioP1;P1;durP2;ratioP2;P2;SDS_P1;SDS_P2;PMS_P1;PMS_P2;Temp;Humidity;BMP_temperature;BMP_pressure;BME280_temperature;BME280_humidity;BME280_pressure;Samples;Min_cycle;Max_cycle;Signal;HPM_P1;HPM_P2
2022/08/08 00:00:42;;;;;;;0.00;0.00;;;14.50;99.90;;;;;;5097447;28;20046;-78
2022/08/08 00:03:32;;;;;;;0.00;0.00;;;14.40;99.90;;;;;;5096959;28;20063;-78
2022/08/08 00:06:08;;;;;;;0.00;0.00;;;14.40;99.90;;;;;;5114451;28;20097;-77
2022/08/08 00:08:50;;;;;;;0.00;0.00;;;14.30;99.90;;;;;;5114637;28;20062;-78
2022/08/08 00:11:15;;;;;;;0.73;0.00;;;14.30;99.90;;;;;;5096837;28;20047;-78
2022/08/08 00:13:51;;;;;;;0.00;0.00;;;14.30;99.90;;;;;;5113742;28;20039;-78
2022/08/08 00:16:48;;;;;;;0.00;0.00;;;14.20;99.90;;;;;;5113240;28;20510;-78
2022/08/08 00:19:28;;;;;;;0.00;0.00;;;14.10;99.90;;;;;;5016210;28;20405;-77
2022/08/08 00:22:04;;;;;;;0.00;0.00;;;14.00;99.90;;;;;;5016131;28;20055;-78
2022/08/08 00:24:38;;;;;;;0.00;0.00;;;14.00;99.90;;;;;;4999117;28;20093;-78
2022/08/08 00:27:08;;;;;;;0.00;0.00;;;13.90;99.90;;;;;;5016217;28;20057;-78
2022/08/08 00:29:52;;;;;;;1.27;0.28;;;13.80;99.90;;;;;;5015932;28;20498;-78
2022/08/08 00:32:18;;;;;;;0.00;0.00;;;13.80;99.90;;;;;;4999515;28;20144;-77
2022/08/08 00:35:10;;;;;;;0.08;0.08;;;13.80;99.90;;;;;;5015670;28;20096;-77
2022/08/08 00:38:03;;;;;;;0.00;0.00;;;13.80;99.90;;;;;;4999557;28;20061;-77
2022/08/08 00:40:29;;;;;;;0.10;0.10;;;13.70;99.90;;;;;;5015754;28;20102;-77
2022/08/08 00:43:35;;;;;;;0.32;0.13;;;13.70;99.90;;;;;;5015934;28;20049;-78
2022/08/08 00:46:38;;;;;;;0.32;0.00;;;13.70;99.90;;;;;;5015938;28;20052;-78
2022/08/08 00:49:27;;;;;;;0.00;0.00;;;13.70;99.90;;;;;;4998785;28;20057;-78
2022/08/08 00:52:02;;;;;;;0.00;0.00;;;13.80;99.90;;;;;;5016365;28;20515;-78
2022/08/08 00:54:35;;;;;;;0.00;0.00;;;13.80;99.90;;;;;;4999377;28;20053;-78
2022/08/08 00:57:10;;;;;;;0.08;0.08;;;13.80;99.90;;;;;;5107052;28;20055;-78
2022/08/08 01:00:03;;;;;;;0.00;0.00;;;13.80;99.90;;;;;;5097456;28;20077;-78
2022/08/08 01:02:46;;;;;;;0.00;0.00;;;13.80;99.90;;;;;;5113522;28;20044;-78
2022/08/08 01:05:53;;;;;;;0.00;0.00;;;13.80;99.90;;;;;;5113704;28;20044;-78
2022/08/08 01:08:46;;;;;;;0.00;0.00;;;13.70;99.90;;;;;;5015889;28;20057;-78
2022/08/08 01:11:47;;;;;;;0.00;0.00;;;13.70;99.90;;;;;;5015277;28;20564;-78
2022/08/08 01:14:46;;;;;;;0.00;0.00;;;13.60;99.90;;;;;;4940900;28;20094;-78
2022/08/08 01:17:30;;;;;;;0.00;0.00;;;13.40;99.90;;;;;;4957351;28;20402;-77
2022/08/08 01:19:58;;;;;;;0.00;0.00;;;13.40;99.90;;;;;;4957110;28;20051;-77
2022/08/08 01:22:51;;;;;;;0.00;0.00;;;13.30;99.90;;;;;;4956690;28;20053;-78
2022/08/08 01:25:44;;;;;;;0.00;0.00;;;13.30;99.90;;;;;;4956848;28;20051;-78
2022/08/08 01:28:44;;;;;;;0.00;0.00;;;13.30;99.90;;;;;;4944227;28;20050;-78
2022/08/08 01:31:41;;;;;;;0.00;0.00;;;13.30;99.90;;;;;;4960299;28;20105;-78
2022/08/08 01:34:21;;;;;;;0.00;0.00;;;13.30;99.90;;;;;;4960595;28;20109;-78
2022/08/08 01:37:02;;;;;;;0.00;0.00;;;13.30;99.90;;;;;;4944615;28;20565;-78
2022/08/08 01:39:55;;;;;;;0.00;0.00;;;13.20;99.90;;;;;;4960845;28;20530;-78
2022/08/08 01:42:39;;;;;;;0.73;0.52;;;13.20;99.90;;;;;;4944198;28;20156;-78
2022/08/08 01:45:42;;;;;;;0.00;0.00;;;13.20;99.90;;;;;;4983146;28;20054;-78
2022/08/08 01:48:31;;;;;;;0.00;0.00;;;13.20;99.90;;;;;;4960032;28;20153;-78
2022/08/08 01:51:21;;;;;;;0.00;0.00;;;13.20;99.90;;;;;;5054953;28;20052;-78
2022/08/08 01:54:05;;;;;;;0.10;0.10;;;13.20;99.90;;;;;;5058439;28;20092;-77
2022/08/08 01:56:42;;;;;;;0.00;0.00;;;13.10;99.90;;;;;;5058430;28;20152;-78
2022/08/08 01:59:37;;;;;;;0.00;0.00;;;13.10;99.90;;;;;;5041591;28;20060;-77
2022/08/08 02:02:16;;;;;;;0.00;0.00;;;13.00;99.90;;;;;;5058125;28;20048;-78
2022/08/08 02:05:12;;;;;;;0.00;0.00;;;13.00;99.90;;;;;;5041827;28;20060;-78
2022/08/08 02:07:47;;;;;;;0.00;0.00;;;12.90;99.90;;;;;;5058340;28;20492;-78
2022/08/08 02:10:36;;;;;;;0.00;0.00;;;12.90;99.90;;;;;;5058055;28;20048;-78
2022/08/08 02:13:15;;;;;;;0.00;0.00;;;12.90;99.90;;;;;;5057431;28;20064;-78
2022/08/08 02:16:00;;;;;;;0.00;0.00;;;12.90;99.90;;;;;;5058089;28;20507;-78
2022/08/08 02:19:02;;;;;;;0.00;0.00;;;12.80;99.90;;;;;;5058283;28;20086;-78
2022/08/08 02:24:28;;;;;;;0.00;0.00;;;12.70;99.90;;;;;;5082673;28;20050;-78
2022/08/08 02:26:58;;;;;;;0.00;0.00;;;12.70;99.90;;;;;;5116353;28;20073;-77
2022/08/08 02:29:35;;;;;;;0.00;0.00;;;12.70;99.90;;;;;;5115929;28;20491;-78
2022/08/08 02:32:06;;;;;;;0.00;0.00;;;12.70;99.90;;;;;;5116610;28;20122;-78
2022/08/08 02:34:44;;;;;;;0.00;0.00;;;12.60;99.90;;;;;;5116142;28;20040;-78
2022/08/08 02:37:32;;;;;;;0.38;0.25;;;12.60;99.90;;;;;;5099056;28;20048;-78
2022/08/08 02:40:07;;;;;;;0.00;0.00;;;12.60;99.90;;;;;;5098877;28;20047;-78
2022/08/08 02:42:50;;;;;;;0.00;0.00;;;12.60;99.90;;;;;;5116213;28;20089;-77
2022/08/08 02:46:07;;;;;;;0.13;0.05;;;12.60;99.90;;;;;;5098312;28;20143;-78
2022/08/08 02:48:51;;;;;;;0.00;0.00;;;12.60;99.90;;;;;;5098805;28;20420;-78
2022/08/08 02:51:48;;;;;;;0.10;0.10;;;12.60;99.90;;;;;;5115635;28;20258;-78
2022/08/08 02:54:41;;;;;;;0.00;0.00;;;12.50;99.90;;;;;;5116171;28;20495;-78
2022/08/08 02:57:33;;;;;;;0.10;0.10;;;12.60;99.90;;;;;;5116492;28;20052;-78
2022/08/08 03:00:29;;;;;;;0.20;0.08;;;12.60;99.90;;;;;;5115859;28;20043;-78
2022/08/08 03:03:19;;;;;;;0.00;0.00;;;12.60;99.90;;;;;;5116072;28;20055;-78
2022/08/08 03:06:13;;;;;;;0.00;0.00;;;12.60;99.90;;;;;;5115999;28;20489;-78
2022/08/08 03:08:45;;;;;;;0.00;0.00;;;12.60;99.90;;;;;;5099518;28;20058;-78
2022/08/08 03:11:38;;;;;;;0.00;0.00;;;12.60;99.90;;;;;;5115576;28;20048;-78
2022/08/08 03:14:32;;;;;;;0.00;0.00;;;12.70;99.90;;;;;;5115596;28;20110;-78
2022/08/08 03:17:27;;;;;;;0.00;0.00;;;12.70;99.90;;;;;;5115596;28;20051;-77
2022/08/08 03:20:04;;;;;;;0.00;0.00;;;12.70;99.90;;;;;;5081600;28;20062;-77
2022/08/08 03:22:30;;;;;;;0.00;0.00;;;12.60;99.90;;;;;;5098156;28;20391;-78
2022/08/08 03:24:57;;;;;;;0.00;0.00;;;12.60;99.90;;;;;;5098067;28;20047;-77
2022/08/08 03:27:38;;;;;;;0.90;0.52;;;12.60;99.90;;;;;;5115087;28;20147;-77
2022/08/08 03:30:10;;;;;;;0.00;0.00;;;12.60;99.90;;;;;;5098797;28;20051;-77
2022/08/08 03:35:25;;;;;;;0.00;0.00;;;12.50;99.90;;;;;;5113874;28;20047;-78
2022/08/08 03:37:52;;;;;;;0.00;0.00;;;12.50;99.90;;;;;;5112829;28;20122;-78
2022/08/08 03:40:20;;;;;;;0.00;0.00;;;12.50;99.90;;;;;;5096739;28;20086;-78
2022/08/08 03:42:46;;;;;;;0.00;0.00;;;12.50;99.90;;;;;;5114982;28;20479;-78
2022/08/08 03:45:17;;;;;;;0.00;0.00;;;12.50;99.90;;;;;;5114659;28;20087;-77
2022/08/08 03:47:43;;;;;;;0.00;0.00;;;12.50;99.90;;;;;;5097623;28;20403;-77
2022/08/08 03:50:18;;;;;;;0.00;0.00;;;12.40;99.90;;;;;;5113167;28;20051;-78
2022/08/08 03:52:44;;;;;;;0.03;0.00;;;12.40;99.90;;;;;;5115413;28;20040;-78
2022/08/08 03:55:13;;;;;;;0.00;0.00;;;12.40;99.90;;;;;;5097607;28;20050;-78
2022/08/08 03:57:44;;;;;;;0.00;0.00;;;12.40;99.90;;;;;;5097562;28;20097;-78
2022/08/08 04:00:13;;;;;;;0.00;0.00;;;12.50;99.90;;;;;;5114306;28;20090;-78
2022/08/08 04:02:39;;;;;;;0.00;0.00;;;12.50;99.90;;;;;;5097357;28;20043;-78
2022/08/08 04:05:05;;;;;;;0.00;0.00;;;12.50;99.90;;;;;;5114400;28;20047;-78
2022/08/08 04:07:38;;;;;;;0.00;0.00;;;12.40;99.90;;;;;;5114250;28;20058;-78
2022/08/08 04:10:06;;;;;;;0.00;0.00;;;12.30;99.90;;;;;;5114334;28;20042;-78
2022/08/08 04:12:31;;;;;;;0.00;0.00;;;12.30;99.90;;;;;;5096857;28;20402;-78
2022/08/08 04:14:57;;;;;;;0.00;0.00;;;12.30;99.90;;;;;;5114019;28;20051;-78
2022/08/08 04:17:23;;;;;;;0.00;0.00;;;12.30;99.90;;;;;;5114429;28;20039;-78
2022/08/08 04:19:48;;;;;;;0.00;0.00;;;12.20;99.90;;;;;;5097548;28;20040;-78
2022/08/08 04:22:14;;;;;;;0.00;0.00;;;12.20;99.90;;;;;;5114195;28;20093;-78
2022/08/08 04:24:39;;;;;;;0.00;0.00;;;12.20;99.90;;;;;;5097186;28;20043;-78
2022/08/08 04:27:05;;;;;;;0.00;0.00;;;12.20;99.90;;;;;;5114105;28;20043;-78
2022/08/08 04:29:31;;;;;;;0.00;0.00;;;12.20;99.90;;;;;;5113696;28;20079;-77
2022/08/08 04:31:57;;;;;;;0.00;0.00;;;12.20;99.90;;;;;;5113176;28;20098;-78
2022/08/08 04:34:23;;;;;;;0.00;0.00;;;12.20;99.90;;;;;;5095984;28;20086;-78
2022/08/08 04:36:48;;;;;;;0.00;0.00;;;12.30;99.90;;;;;;5113579;28;20469;-78
2022/08/08 04:39:14;;;;;;;0.00;0.00;;;12.20;99.90;;;;;;5097040;28;20383;-77
2022/08/08 04:41:39;;;;;;;0.00;0.00;;;12.30;99.90;;;;;;5096829;28;20056;-77
2022/08/08 04:44:06;;;;;;;0.00;0.00;;;12.30;99.90;;;;;;5096604;28;20043;-77
2022/08/08 04:46:31;;;;;;;0.00;0.00;;;12.30;99.90;;;;;;5113632;28;20063;-77
2022/08/08 04:48:57;;;;;;;0.00;0.00;;;12.30;99.90;;;;;;5113215;28;20044;-78
2022/08/08 04:51:23;;;;;;;0.00;0.00;;;12.40;99.90;;;;;;5113248;28;20051;-78
2022/08/08 04:53:49;;;;;;;0.00;0.00;;;12.40;99.90;;;;;;5096790;28;20062;-78
2022/08/08 04:56:16;;;;;;;0.00;0.00;;;12.40;99.90;;;;;;5096622;28;20499;-78
2022/08/08 04:58:42;;;;;;;0.10;0.05;;;12.40;99.90;;;;;;5113426;28;20059;-78
2022/08/08 05:01:08;;;;;;;0.00;0.00;;;12.40;99.90;;;;;;5113037;28;20407;-78
2022/08/08 05:03:33;;;;;;;0.08;0.08;;;12.40;99.90;;;;;;5096622;28;20042;-78
2022/08/08 05:05:59;;;;;;;0.00;0.00;;;12.40;99.90;;;;;;5096327;28;20051;-78
2022/08/08 05:08:25;;;;;;;0.00;0.00;;;12.40;99.90;;;;;;5113526;28;20044;-77
2022/08/08 05:10:51;;;;;;;0.00;0.00;;;12.40;99.90;;;;;;5112905;28;20047;-78
2022/08/08 05:13:17;;;;;;;0.00;0.00;;;12.40;99.90;;;;;;5096123;28;20099;-78
2022/08/08 05:15:43;;;;;;;0.00;0.00;;;12.50;99.90;;;;;;5095984;28;20527;-77
2022/08/08 05:18:09;;;;;;;0.00;0.00;;;12.40;99.90;;;;;;5095842;28;20051;-78
2022/08/08 05:20:34;;;;;;;0.00;0.00;;;12.50;99.90;;;;;;5096522;28;20505;-78
2022/08/08 05:23:00;;;;;;;0.00;0.00;;;12.50;99.90;;;;;;5113461;28;20051;-78
2022/08/08 05:25:26;;;;;;;0.00;0.00;;;12.60;99.90;;;;;;5113260;28;20086;-78
2022/08/08 05:27:52;;;;;;;0.00;0.00;;;12.60;99.90;;;;;;5113200;28;20054;-78
2022/08/08 05:30:18;;;;;;;0.10;0.08;;;12.60;99.90;;;;;;5113215;28;20483;-78
2022/08/08 05:32:44;;;;;;;0.00;0.00;;;12.70;99.90;;;;;;5095636;28;20499;-78
2022/08/08 05:35:12;;;;;;;0.00;0.00;;;12.70;99.90;;;;;;5112726;28;20124;-78
2022/08/08 05:37:40;;;;;;;0.00;0.00;;;12.70;99.90;;;;;;5095670;28;20063;-77
2022/08/08 05:40:06;;;;;;;0.00;0.00;;;12.80;99.90;;;;;;5113072;28;20044;-77
2022/08/08 05:42:47;;;;;;;0.00;0.00;;;12.90;99.90;;;;;;5095970;28;20056;-78
2022/08/08 05:45:13;;;;;;;0.00;0.00;;;12.90;99.90;;;;;;5113442;28;20047;-77
2022/08/08 05:47:40;;;;;;;0.08;0.00;;;13.00;99.90;;;;;;5112633;28;20047;-78
2022/08/08 05:50:07;;;;;;;0.00;0.00;;;13.10;99.90;;;;;;5112496;28;20052;-78
2022/08/08 05:52:36;;;;;;;0.00;0.00;;;13.10;99.90;;;;;;5095996;28;20047;-77
2022/08/08 05:55:08;;;;;;;0.00;0.00;;;13.20;99.90;;;;;;5112836;28;20075;-77
2022/08/08 05:57:36;;;;;;;0.00;0.00;;;13.30;99.90;;;;;;5113462;28;20040;-77
2022/08/08 06:00:09;;;;;;;0.00;0.00;;;13.30;99.90;;;;;;5095858;28;20435;-77
2022/08/08 06:05:20;;;;;;;0.00;0.00;;;13.50;99.90;;;;;;5112855;28;20097;-77
2022/08/08 06:07:49;;;;;;;0.00;0.00;;;13.70;99.90;;;;;;5112977;28;20437;-77
2022/08/08 06:10:15;;;;;;;0.00;0.00;;;13.80;99.90;;;;;;5112960;28;20128;-77
2022/08/08 06:12:42;;;;;;;0.00;0.00;;;13.90;99.90;;;;;;5095890;28;20101;-77
2022/08/08 06:15:09;;;;;;;0.00;0.00;;;14.00;99.90;;;;;;5116080;28;20142;-77
2022/08/08 06:17:40;;;;;;;0.00;0.00;;;14.00;99.90;;;;;;5116458;28;20364;-77
2022/08/08 06:20:11;;;;;;;0.00;0.00;;;14.10;99.90;;;;;;5098824;28;20479;-77
2022/08/08 06:22:37;;;;;;;0.10;0.00;;;14.20;99.90;;;;;;5116235;28;20043;-77
2022/08/08 06:25:04;;;;;;;0.00;0.00;;;14.20;99.90;;;;;;5099057;28;20047;-77
2022/08/08 06:27:36;;;;;;;0.10;0.00;;;14.30;99.90;;;;;;5099242;28;20054;-77
2022/08/08 06:30:05;;;;;;;0.00;0.00;;;14.40;99.90;;;;;;5115834;28;20048;-77
2022/08/08 06:32:35;;;;;;;0.00;0.00;;;14.50;99.90;;;;;;5098960;28;20072;-77
2022/08/08 06:35:04;;;;;;;0.13;0.13;;;14.70;99.90;;;;;;5116100;28;20051;-77
2022/08/08 06:37:34;;;;;;;0.00;0.00;;;14.70;99.90;;;;;;5116219;28;20139;-77
2022/08/08 06:40:04;;;;;;;0.00;0.00;;;14.80;99.90;;;;;;5098758;28;20047;-77
2022/08/08 06:42:37;;;;;;;1.48;0.45;;;14.90;99.90;;;;;;5116065;28;20442;-77
2022/08/08 06:45:04;;;;;;;0.00;0.00;;;15.00;99.90;;;;;;5115909;28;20152;-77
2022/08/08 06:47:30;;;;;;;0.00;0.00;;;15.10;99.90;;;;;;5115795;28;20043;-77
2022/08/08 06:49:56;;;;;;;0.00;0.00;;;15.20;99.90;;;;;;5115154;28;20054;-77
2022/08/08 06:52:22;;;;;;;0.00;0.00;;;15.40;99.90;;;;;;5115804;28;20052;-77
2022/08/08 06:54:48;;;;;;;0.00;0.00;;;15.50;99.90;;;;;;5098418;28;20067;-77
2022/08/08 06:57:14;;;;;;;0.00;0.00;;;15.70;99.90;;;;;;5098082;28;20074;-77
2022/08/08 06:59:39;;;;;;;0.00;0.00;;;15.80;99.90;;;;;;5098314;28;20051;-77
2022/08/08 07:02:05;;;;;;;0.10;0.10;;;16.20;99.90;;;;;;5097971;28;20479;-77
2022/08/08 07:04:44;;;;;;;0.00;0.00;;;16.90;99.90;;;;;;5115179;28;20096;-77
2022/08/08 07:07:10;;;;;;;0.00;0.00;;;17.40;99.90;;;;;;5115365;28;20047;-78
2022/08/08 07:09:51;;;;;;;0.00;0.00;;;17.60;99.90;;;;;;5114693;28;20076;-78
2022/08/08 07:12:40;;;;;;;0.10;0.10;;;17.90;99.90;;;;;;5097819;28;20483;-78
2022/08/08 07:15:14;;;;;;;0.00;0.00;;;17.90;99.90;;;;;;5098324;28;20060;-78
2022/08/08 07:17:46;;;;;;;0.00;0.00;;;18.00;99.90;;;;;;5098125;28;20161;-78
2022/08/08 07:20:24;;;;;;;0.00;0.00;;;18.00;99.90;;;;;;5097697;28;20118;-79
2022/08/08 07:23:02;;;;;;;0.00;0.00;;;18.00;99.90;;;;;;5097341;28;20586;-78
2022/08/08 07:25:33;;;;;;;0.00;0.00;;;18.20;99.90;;;;;;5097339;28;20461;-78
2022/08/08 07:28:24;;;;;;;0.60;0.20;;;18.30;99.90;;;;;;5097990;28;20055;-79
2022/08/08 07:30:50;;;;;;;0.00;0.00;;;18.30;99.90;;;;;;5096460;28;20051;-78
2022/08/08 07:33:18;;;;;;;0.00;0.00;;;18.30;99.90;;;;;;5114117;28;20043;-79
2022/08/08 07:35:46;;;;;;;0.20;0.10;;;18.20;99.90;;;;;;5114031;28;20055;-78
2022/08/08 07:38:15;;;;;;;0.00;0.00;;;18.30;99.90;;;;;;5114261;28;20039;-79
2022/08/08 07:40:44;;;;;;;0.05;0.05;;;18.40;99.90;;;;;;5113986;28;20173;-78
2022/08/08 07:43:11;;;;;;;0.00;0.00;;;18.60;99.90;;;;;;5097572;28;20043;-79
2022/08/08 07:45:38;;;;;;;0.00;0.00;;;18.70;99.90;;;;;;5097559;28;20054;-78
2022/08/08 07:48:04;;;;;;;0.00;0.00;;;18.90;99.90;;;;;;5097426;28;20062;-79
2022/08/08 07:50:36;;;;;;;0.00;0.00;;;19.00;99.90;;;;;;5097271;28;20051;-79
2022/08/08 07:53:24;;;;;;;0.17;0.00;;;19.10;99.90;;;;;;5097996;28;20044;-79
2022/08/08 07:55:54;;;;;;;0.00;0.00;;;19.20;99.90;;;;;;5114332;28;20050;-79
2022/08/08 07:58:40;;;;;;;0.00;0.00;;;19.10;99.90;;;;;;5097696;28;20150;-79
2022/08/08 08:01:12;;;;;;;0.00;0.00;;;19.20;99.90;;;;;;5097743;28;20048;-79
2022/08/08 08:03:58;;;;;;;0.00;0.00;;;19.10;99.90;;;;;;5097632;28;20047;-79
2022/08/08 08:06:25;;;;;;;0.00;0.00;;;19.20;99.90;;;;;;5114531;28;20113;-78
2022/08/08 08:09:18;;;;;;;0.80;0.38;;;19.10;99.90;;;;;;5097539;28;20047;-79
2022/08/08 08:11:48;;;;;;;0.20;0.20;;;19.00;99.90;;;;;;5114703;28;20488;-79
2022/08/08 08:14:18;;;;;;;0.00;0.00;;;18.90;99.90;;;;;;5114586;28;20062;-79
2022/08/08 08:16:46;;;;;;;0.20;0.10;;;18.90;99.90;;;;;;5114002;28;20104;-79
2022/08/08 08:19:14;;;;;;;0.00;0.00;;;18.90;99.90;;;;;;5114681;28;20093;-79
2022/08/08 08:21:42;;;;;;;0.65;0.22;;;18.90;99.90;;;;;;5097088;28;20044;-79
2022/08/08 08:24:08;;;;;;;0.00;0.00;;;19.00;99.90;;;;;;5114246;28;20061;-78
2022/08/08 08:26:33;;;;;;;0.00;0.00;;;19.10;99.90;;;;;;5114388;28;20047;-78
2022/08/08 08:28:59;;;;;;;0.00;0.00;;;19.20;99.90;;;;;;5097216;28;20052;-78
2022/08/08 08:31:25;;;;;;;0.10;0.00;;;19.40;99.90;;;;;;5113619;28;20062;-79
2022/08/08 08:33:51;;;;;;;0.00;0.00;;;19.40;99.90;;;;;;5113506;28;20050;-79
2022/08/08 08:36:19;;;;;;;0.00;0.00;;;19.50;99.90;;;;;;5113814;28;20048;-79
2022/08/08 08:38:45;;;;;;;0.00;0.00;;;19.60;99.90;;;;;;5097243;28;20048;-79
2022/08/08 08:41:11;;;;;;;0.00;0.00;;;19.60;99.90;;;;;;5113806;28;20070;-79
2022/08/08 08:43:39;;;;;;;0.00;0.00;;;19.70;99.90;;;;;;5096784;28;20043;-79
2022/08/08 08:46:10;;;;;;;0.00;0.00;;;19.80;99.90;;;;;;5096326;28;20043;-79
2022/08/08 08:48:36;;;;;;;0.10;0.10;;;19.90;99.90;;;;;;5096097;28;20091;-79
2022/08/08 08:51:09;;;;;;;0.00;0.00;;;20.20;99.90;;;;;;5096807;28;20109;-79
2022/08/08 08:53:36;;;;;;;0.00;0.00;;;20.30;99.90;;;;;;5114224;28;20138;-79
2022/08/08 08:56:03;;;;;;;0.10;0.00;;;20.60;99.90;;;;;;5113718;28;20479;-79
2022/08/08 08:58:40;;;;;;;0.00;0.00;;;20.60;99.90;;;;;;5113084;28;20054;-79
2022/08/08 09:01:12;;;;;;;0.00;0.00;;;20.90;99.90;;;;;;5113940;28;20187;-79
2022/08/08 09:03:43;;;;;;;1.95;0.45;;;21.20;99.90;;;;;;5096107;28;20056;-79
2022/08/08 09:06:10;;;;;;;0.00;0.00;;;21.40;99.90;;;;;;5097337;28;20051;-80
2022/08/08 09:08:39;;;;;;;0.00;0.00;;;21.50;99.90;;;;;;5096622;28;20052;-80
2022/08/08 09:11:08;;;;;;;0.00;0.00;;;21.40;99.90;;;;;;5113727;28;20441;-79
2022/08/08 09:13:38;;;;;;;0.10;0.10;;;21.30;99.90;;;;;;5096381;28;20130;-80
2022/08/08 09:16:04;;;;;;;0.00;0.00;;;21.10;99.90;;;;;;5113777;28;20048;-80
2022/08/08 09:18:30;;;;;;;4.80;0.32;;;20.90;99.90;;;;;;5113869;28;20494;-80
2022/08/08 09:21:00;;;;;;;0.00;0.00;;;20.70;99.90;;;;;;5096144;28;20077;-79
2022/08/08 09:23:31;;;;;;;0.00;0.00;;;20.50;99.90;;;;;;5096267;28;20043;-79
2022/08/08 09:26:04;;;;;;;0.00;0.00;;;20.30;99.90;;;;;;5113889;28;20055;-80
2022/08/08 09:28:36;;;;;;;0.00;0.00;;;20.40;99.90;;;;;;5113553;28;20048;-79
2022/08/08 09:31:34;;;;;;;0.00;0.00;;;20.60;99.90;;;;;;5095512;28;20052;-79
2022/08/08 09:34:02;;;;;;;0.00;0.00;;;20.90;99.90;;;;;;4998738;28;20061;-79
2022/08/08 09:36:32;;;;;;;0.00;0.00;;;21.00;99.90;;;;;;5015583;28;20049;-79
2022/08/08 09:38:59;;;;;;;0.00;0.00;;;21.00;99.90;;;;;;5015275;28;20083;-79
2022/08/08 09:41:38;;;;;;;0.00;0.00;;;20.90;99.90;;;;;;5015621;28;20053;-79
2022/08/08 09:44:28;;;;;;;0.00;0.00;;;20.70;99.90;;;;;;4998788;28;20058;-79
2022/08/08 09:46:55;;;;;;;2.38;0.30;;;20.70;99.90;;;;;;4998945;28;20088;-79
2022/08/08 09:49:21;;;;;;;0.00;0.00;;;20.70;99.90;;;;;;5000889;28;20056;-79
2022/08/08 09:51:54;;;;;;;0.00;0.00;;;21.00;99.90;;;;;;5018808;28;20172;-79
2022/08/08 09:54:29;;;;;;;0.00;0.00;;;21.50;99.90;;;;;;5001739;28;20556;-79
2022/08/08 09:57:00;;;;;;;0.08;0.00;;;21.80;99.90;;;;;;5002396;28;20061;-80
2022/08/08 09:59:31;;;;;;;0.00;0.00;;;22.10;99.90;;;;;;5019031;28;20401;-79
2022/08/08 10:02:01;;;;;;;0.00;0.00;;;22.30;99.90;;;;;;5002537;28;20041;-79
2022/08/08 10:04:30;;;;;;;0.00;0.00;;;22.20;99.90;;;;;;5002467;28;20496;-80
2022/08/08 10:06:56;;;;;;;0.00;0.00;;;22.00;99.90;;;;;;5019003;28;20436;-80
2022/08/08 10:09:29;;;;;;;0.00;0.00;;;21.90;99.90;;;;;;5025302;28;20045;-80
2022/08/08 10:11:56;;;;;;;0.00;0.00;;;21.60;99.90;;;;;;5099641;28;20055;-80
2022/08/08 10:14:30;;;;;;;0.00;0.00;;;21.40;99.90;;;;;;5116954;28;20047;-80
2022/08/08 10:16:56;;;;;;;;;;;21.20;99.90;;;;;;5116865;28;20047;-80
2022/08/08 10:19:21;;;;;;;0.00;0.00;;;21.10;99.90;;;;;;5116534;28;19985;-79
2022/08/08 10:21:51;;;;;;;0.00;0.00;;;21.10;99.90;;;;;;5116561;28;20544;-80
2022/08/08 10:24:17;;;;;;;0.00;0.00;;;21.10;99.90;;;;;;5099896;28;20051;-80
2022/08/08 10:26:47;;;;;;;0.00;0.00;;;21.10;99.90;;;;;;5099297;28;20134;-80
2022/08/08 10:29:12;;;;;;;0.00;0.00;;;21.10;99.90;;;;;;5099610;28;20047;-80
2022/08/08 10:34:27;;;;;;;0.00;0.00;;;21.30;99.90;;;;;;5116243;28;20502;-80
2022/08/08 10:36:55;;;;;;;0.00;0.00;;;21.40;99.90;;;;;;5099027;28;20062;-80
2022/08/08 10:39:23;;;;;;;1.65;0.25;;;21.40;99.90;;;;;;5116061;28;20487;-79
2022/08/08 10:41:59;;;;;;;0.00;0.00;;;21.40;99.90;;;;;;5116184;28;20092;-80
2022/08/08 10:44:35;;;;;;;0.00;0.00;;;21.40;99.90;;;;;;5114998;28;20044;-80
2022/08/08 10:47:27;;;;;;;0.10;0.00;;;21.40;99.90;;;;;;5107262;28;20184;-80
2022/08/08 10:49:58;;;;;;;0.00;0.00;;;21.40;99.90;;;;;;5091116;28;20079;-80
2022/08/08 10:52:32;;;;;;;2.28;0.00;;;21.30;99.90;;;;;;5078155;28;20134;-80
2022/08/08 10:55:05;;;;;;;0.00;0.00;;;21.30;99.90;;;;;;5078218;28;20135;-79
2022/08/08 10:57:36;;;;;;;2.40;0.25;;;21.60;99.90;;;;;;5078474;28;20351;-80
2022/08/08 11:00:04;;;;;;;0.00;0.00;;;22.00;99.90;;;;;;5094725;28;20146;-80
2022/08/08 11:02:31;;;;;;;0.00;0.00;;;22.50;99.90;;;;;;5078172;28;20052;-80
2022/08/08 11:04:59;;;;;;;0.17;0.17;;;23.00;99.90;;;;;;5095008;28;20087;-80
2022/08/08 11:07:28;;;;;;;0.00;0.00;;;23.30;99.80;;;;;;5094928;28;20078;-80
2022/08/08 11:09:55;;;;;;;0.00;0.00;;;23.40;98.20;;;;;;5094821;28;20134;-80
2022/08/08 11:12:21;;;;;;;0.00;0.00;;;23.20;99.00;;;;;;5078671;28;20112;-80
2022/08/08 11:14:49;;;;;;;0.00;0.00;;;23.20;99.20;;;;;;5095754;28;20189;-80
2022/08/08 11:17:17;;;;;;;0.00;0.00;;;23.20;98.80;;;;;;5094925;28;20047;-80
2022/08/08 11:19:43;;;;;;;0.00;0.00;;;23.50;98.10;;;;;;5077844;28;20048;-80
2022/08/08 11:22:13;;;;;;;0.00;0.00;;;23.80;99.20;;;;;;5077721;28;20056;-80
2022/08/08 11:24:41;;;;;;;0.00;0.00;;;24.20;97.20;;;;;;5094716;28;20106;-80
2022/08/08 11:27:08;;;;;;;0.15;0.00;;;24.70;95.70;;;;;;5094709;28;20369;-80
2022/08/08 11:29:35;;;;;;;0.00;0.00;;;25.00;96.30;;;;;;5078208;28;20130;-81
2022/08/08 11:32:03;;;;;;;0.00;0.00;;;25.10;94.50;;;;;;5077753;28;20044;-81
2022/08/08 11:34:33;;;;;;;0.00;0.00;;;24.70;92.20;;;;;;5095197;28;20101;-80
2022/08/08 11:37:00;;;;;;;0.00;0.00;;;24.50;93.40;;;;;;5078513;28;20044;-81
2022/08/08 11:39:27;;;;;;;0.00;0.00;;;24.20;92.80;;;;;;5077193;28;20117;-80
2022/08/08 11:41:53;;;;;;;0.00;0.00;;;24.00;92.40;;;;;;5076980;28;20067;-80
2022/08/08 11:44:20;;;;;;;0.00;0.00;;;23.80;92.90;;;;;;5094961;28;20096;-80
2022/08/08 11:46:45;;;;;;;0.00;0.00;;;23.70;93.10;;;;;;5078026;28;20044;-80
2022/08/08 11:49:12;;;;;;;0.00;0.00;;;23.60;94.60;;;;;;5094319;28;20079;-80
2022/08/08 11:51:39;;;;;;;0.00;0.00;;;23.70;93.80;;;;;;5095059;28;20142;-81
2022/08/08 11:54:06;;;;;;;0.00;0.00;;;23.90;93.30;;;;;;5077642;28;20055;-81
2022/08/08 11:56:34;;;;;;;0.00;0.00;;;23.80;92.80;;;;;;5077983;28;20140;-80
2022/08/08 11:59:10;;;;;;;0.00;0.00;;;23.70;93.80;;;;;;5094490;28;20157;-80
2022/08/08 12:01:37;;;;;;;0.00;0.00;;;23.60;94.80;;;;;;5077551;28;20044;-80
2022/08/08 12:04:04;;;;;;;0.00;0.00;;;23.50;93.70;;;;;;5094244;28;20032;-80
2022/08/08 12:06:31;;;;;;;0.00;0.00;;;23.60;94.20;;;;;;5094287;28;20376;-80
2022/08/08 12:09:07;;;;;;;0.00;0.00;;;23.70;93.90;;;;;;5094790;28;20395;-80
2022/08/08 12:11:38;;;;;;;1.10;0.13;;;23.70;94.40;;;;;;5076644;28;20509;-80
2022/08/08 12:14:04;;;;;;;0.00;0.00;;;23.80;93.30;;;;;;5094261;28;20399;-81
2022/08/08 12:16:30;;;;;;;0.00;0.00;;;23.70;92.00;;;;;;5077247;28;20048;-80
2022/08/08 12:18:56;;;;;;;0.10;0.10;;;23.80;93.20;;;;;;5077460;28;20432;-81
2022/08/08 12:21:27;;;;;;;0.00;0.00;;;23.70;91.70;;;;;;5077342;28;20450;-81
2022/08/08 12:24:03;;;;;;;0.00;0.00;;;23.70;92.50;;;;;;5077198;28;20040;-81
2022/08/08 12:26:37;;;;;;;0.00;0.00;;;23.80;93.90;;;;;;5077406;28;20114;-81
2022/08/08 12:29:27;;;;;;;0.00;0.00;;;24.30;93.50;;;;;;5076984;28;20131;-81
2022/08/08 12:32:19;;;;;;;0.00;0.00;;;24.40;92.20;;;;;;5077116;28;20515;-81
2022/08/08 12:34:49;;;;;;;0.00;0.00;;;24.20;92.80;;;;;;5090864;28;20145;-81
2022/08/08 12:37:18;;;;;;;0.00;0.00;;;24.00;92.40;;;;;;5093356;28;20488;-81
2022/08/08 12:39:44;;;;;;;0.00;0.00;;;23.80;92.40;;;;;;5093572;28;20040;-80
2022/08/08 12:42:09;;;;;;;0.00;0.00;;;23.70;93.10;;;;;;5093582;28;20048;-80
2022/08/08 12:44:35;;;;;;;0.00;0.00;;;23.60;92.60;;;;;;5093229;28;20055;-81
2022/08/08 12:47:04;;;;;;;0.00;0.00;;;23.60;92.90;;;;;;5076384;28;20054;-81
2022/08/08 12:49:33;;;;;;;0.00;0.00;;;23.60;93.20;;;;;;5093218;28;20533;-81
2022/08/08 12:51:59;;;;;;;0.00;0.00;;;23.70;93.70;;;;;;5093726;28;20036;-80
2022/08/08 12:54:33;;;;;;;0.00;0.00;;;23.70;93.00;;;;;;5094403;28;20387;-81
2022/08/08 12:56:59;;;;;;;0.00;0.00;;;23.80;91.90;;;;;;5093956;28;20048;-80
2022/08/08 12:59:29;;;;;;;0.00;0.00;;;23.80;93.00;;;;;;5076764;28;20052;-80
2022/08/08 13:02:00;;;;;;;0.00;0.00;;;24.00;93.90;;;;;;5075960;28;20117;-81
2022/08/08 13:04:31;;;;;;;0.00;0.00;;;24.10;93.30;;;;;;5075679;28;20462;-79
2022/08/08 13:06:59;;;;;;;0.00;0.00;;;24.10;93.00;;;;;;5095657;28;20119;-80
2022/08/08 13:09:41;;;;;;;1.92;0.25;;;24.00;92.40;;;;;;5093031;28;20044;-80
2022/08/08 13:12:12;;;;;;;0.00;0.00;;;24.00;92.30;;;;;;5093589;28;20048;-80
2022/08/08 13:14:47;;;;;;;0.00;0.00;;;24.00;92.60;;;;;;5113392;28;20055;-80
2022/08/08 13:17:14;;;;;;;0.00;0.00;;;24.00;91.70;;;;;;5113647;28;20048;-80
2022/08/08 13:19:43;;;;;;;0.00;0.00;;;24.00;91.90;;;;;;5096736;28;20048;-80
2022/08/08 13:22:09;;;;;;;0.00;0.00;;;24.00;92.90;;;;;;5113857;28;20092;-80
2022/08/08 13:24:37;;;;;;;0.00;0.00;;;24.10;92.00;;;;;;5114559;28;20119;-81
2022/08/08 13:27:08;;;;;;;0.10;0.10;;;24.20;92.20;;;;;;5096831;28;20083;-80
2022/08/08 13:29:36;;;;;;;0.00;0.00;;;24.20;91.10;;;;;;5097131;28;20051;-80